Time;durP1;ratioP1;P1;durP2;ratioP2;P2;SDS_P1;SDS_P2;PMS_P1;PMS_P2;Temp;Humidity;BMP_temperature;BMP_pressure;BME280_temperature;BME280_humidity;BME280_pressure;Samples;Min_cycle;Max_cycle;Signal;HPM_P1;HPM_P2
2021/07/07 00:00:22;;;;;;;15.52;5.25;;;;;;;16.58;69.71;99528.25;4995472;28;20053;-69
2021/07/07 00:02:49;;;;;;;15.93;5.97;;;;;;;16.59;69.75;99531.72;4995143;28;20046;-68
2021/07/07 00:05:17;;;;;;;12.18;5.63;;;;;;;16.58;69.81;99532.63;4995473;28;20034;-69
2021/07/07 00:07:43;;;;;;;14.73;5.82;;;;;;;16.58;69.67;99519.56;4994911;28;20038;-68
2021/07/07 00:10:14;;;;;;;10.93;5.20;;;;;;;16.56;69.76;99519.56;4995174;28;20149;-69
2021/07/07 00:12:41;;;;;;;16.63;5.00;;;;;;;16.55;69.74;99519.59;4993996;28;20073;-68
2021/07/07 00:15:16;;;;;;;8.25;4.50;;;;;;;16.53;69.57;99522.22;4993591;28;20437;-68
2021/07/07 00:17:44;;;;;;;9.60;4.40;;;;;;;16.52;69.72;99525.72;4977679;28;20034;-68
2021/07/07 00:20:16;;;;;;;10.27;4.05;;;;;;;16.50;69.66;99514.44;4993641;28;20073;-68
2021/07/07 00:22:47;;;;;;;8.73;4.00;;;;;;;16.50;69.67;99518.81;4977639;28;20048;-68
2021/07/07 00:25:16;;;;;;;9.13;4.60;;;;;;;16.49;69.57;99527.53;4993339;28;20061;-67
2021/07/07 00:27:47;;;;;;;9.55;4.00;;;;;;;16.47;69.73;99517.13;4994466;28;20065;-67
2021/07/07 00:30:13;;;;;;;12.63;4.72;;;;;;;16.46;69.45;99523.22;4993983;28;20034;-66
2021/07/07 00:32:47;;;;;;;8.10;4.00;;;;;;;16.44;69.54;99520.63;4993764;28;20050;-67
2021/07/07 00:35:16;;;;;;;11.88;4.35;;;;;;;16.46;69.49;99522.34;4994852;28;20113;-67
2021/07/07 00:37:41;;;;;;;10.02;3.80;;;;;;;16.44;69.57;99511.94;4993335;28;20042;-67
2021/07/07 00:40:10;;;;;;;11.77;4.05;;;;;;;16.46;69.63;99514.50;4993084;28;20434;-67
2021/07/07 00:42:38;;;;;;;10.40;3.72;;;;;;;16.44;69.37;99510.16;4993248;28;20048;-67
2021/07/07 00:45:09;;;;;;;10.32;3.22;;;;;;;16.44;69.73;99515.41;4993257;28;20038;-67
2021/07/07 00:47:37;;;;;;;10.20;3.58;;;;;;;16.42;69.51;99506.75;4994764;28;20497;-67
2021/07/07 00:50:09;;;;;;;9.32;4.05;;;;;;;16.43;69.55;99516.28;4993701;28;20043;-67
2021/07/07 00:52:38;;;;;;;8.05;3.70;;;;;;;16.43;69.57;99513.66;4994004;28;20093;-67
2021/07/07 00:55:11;;;;;;;7.47;3.50;;;;;;;16.42;69.58;99511.97;4994146;28;20624;-65
2021/07/07 00:57:42;;;;;;;10.00;3.00;;;;;;;16.43;69.55;99507.59;4993102;28;20034;-65
2021/07/07 01:00:21;;;;;;;9.05;3.15;;;;;;;16.41;69.51;99507.63;4976721;28;20038;-67
2021/07/07 01:02:49;;;;;;;10.32;3.58;;;;;;;16.41;69.51;99507.63;4993049;28;20393;-66
2021/07/07 01:05:15;;;;;;;7.32;3.42;;;;;;;16.41;69.53;99505.00;4976833;28;20038;-65
2021/07/07 01:07:41;;;;;;;10.45;3.40;;;;;;;16.40;69.55;99513.75;4993946;28;20121;-67
2021/07/07 01:10:12;;;;;;;8.30;3.78;;;;;;;16.40;69.66;99513.75;4994102;28;20125;-65
2021/07/07 01:12:43;;;;;;;9.77;3.40;;;;;;;16.40;69.53;99516.34;4994500;28;20034;-66
2021/07/07 01:15:14;;;;;;;7.10;2.63;;;;;;;16.39;69.47;99511.13;4994157;28;20034;-65
2021/07/07 01:17:40;;;;;;;10.60;3.58;;;;;;;16.40;69.67;99512.88;4994173;28;20041;-66
2021/07/07 01:20:13;;;;;;;6.25;2.60;;;;;;;16.38;69.47;99514.63;4992740;28;20061;-66
2021/07/07 01:22:45;;;;;;;12.20;2.65;;;;;;;16.37;69.51;99521.63;4994454;28;20038;-65
2021/07/07 01:25:13;;;;;;;7.30;2.70;;;;;;;16.38;69.57;99522.47;4992861;28;20065;-66
2021/07/07 01:27:42;;;;;;;6.68;2.80;;;;;;;16.38;69.57;99523.34;4993187;28;20126;-65
2021/07/07 01:30:17;;;;;;;7.03;2.10;;;;;;;16.37;69.58;99524.25;4994010;28;20486;-65
2021/07/07 01:32:46;;;;;;;9.73;3.35;;;;;;;16.37;69.52;99515.53;4994003;28;20064;-65
2021/07/07 01:35:15;;;;;;;12.25;2.97;;;;;;;16.37;69.49;99512.91;4977418;28;20034;-66
2021/07/07 01:37:47;;;;;;;9.30;3.47;;;;;;;16.37;69.46;99521.63;4993879;28;20049;-66
2021/07/07 01:40:18;;;;;;;10.38;3.92;;;;;;;16.36;69.77;99530.34;4994677;28;20049;-64
2021/07/07 01:42:44;;;;;;;15.05;2.80;;;;;;;16.37;69.55;99519.00;4996972;28;20121;-65
2021/07/07 01:45:18;;;;;;;6.45;2.75;;;;;;;16.36;69.71;99519.91;4998121;28;20038;-64
2021/07/07 01:47:44;;;;;;;7.28;2.63;;;;;;;16.36;69.63;99534.72;4997079;28;20128;-64
2021/07/07 01:50:13;;;;;;;9.20;3.05;;;;;;;16.35;69.51;99527.78;4997673;28;20037;-65
2021/07/07 01:52:39;;;;;;;11.63;3.15;;;;;;;16.34;69.58;99534.75;4996633;28;20049;-65
2021/07/07 01:55:07;;;;;;;7.85;2.95;;;;;;;16.34;69.64;99529.50;4997651;28;20129;-67
2021/07/07 01:57:44;;;;;;;9.95;3.22;;;;;;;16.33;69.47;99525.19;4996563;28;20086;-66
2021/07/07 02:00:18;;;;;;;10.70;3.47;;;;;;;16.33;69.80;99527.78;4996877;28;20042;-65
2021/07/07 02:02:48;;;;;;;8.48;3.85;;;;;;;16.35;69.42;99533.00;4997299;28;20051;-66
2021/07/07 02:05:15;;;;;;;7.90;2.75;;;;;;;16.35;69.61;99525.16;4996167;28;20456;-68
2021/07/07 02:07:41;;;;;;;11.60;3.22;;;;;;;16.34;69.63;99519.06;4996252;28;20402;-67
2021/07/07 02:10:13;;;;;;;7.70;2.88;;;;;;;16.34;69.59;99519.06;4997201;28;20065;-65
2021/07/07 02:12:39;;;;;;;11.85;3.13;;;;;;;16.36;69.44;99524.25;4996074;28;20038;-67
2021/07/07 02:15:12;;;;;;;10.30;3.05;;;;;;;16.34;69.65;99515.59;4996346;28;20104;-67
2021/07/07 02:17:44;;;;;;;6.38;3.28;;;;;;;16.33;69.56;99517.31;4997530;28;20517;-66
2021/07/07 02:20:13;;;;;;;10.82;3.08;;;;;;;16.34;69.51;99523.44;4997253;28;20046;-67
2021/07/07 02:22:45;;;;;;;9.45;3.67;;;;;;;16.34;69.73;99523.44;4997040;28;20544;-65
2021/07/07 02:25:17;;;;;;;7.88;2.95;;;;;;;16.34;69.53;99529.50;4995505;28;20057;-66
2021/07/07 02:27:43;;;;;;;7.13;3.20;;;;;;;16.34;69.56;99532.13;4996272;28;20053;-65
2021/07/07 02:30:15;;;;;;;5.65;2.35;;;;;;;16.33;69.52;99530.41;4996083;28;20038;-65
2021/07/07 02:32:44;;;;;;;7.32;3.35;;;;;;;16.32;69.65;99523.44;4997055;28;20030;-65
2021/07/07 02:35:12;;;;;;;8.75;3.03;;;;;;;16.34;69.66;99529.50;4997042;28;20043;-65
2021/07/07 02:37:43;;;;;;;7.03;3.00;;;;;;;16.34;69.61;99526.06;4996886;28;20132;-66
2021/07/07 02:40:11;;;;;;;9.45;3.10;;;;;;;16.34;69.60;99536.50;4995550;28;20038;-67
2021/07/07 02:42:37;;;;;;;7.80;3.30;;;;;;;16.33;69.73;99526.94;4979424;28;20097;-67
2021/07/07 02:45:08;;;;;;;9.43;2.80;;;;;;;16.32;69.59;99526.06;4995700;28;20046;-66
2021/07/07 02:47:34;;;;;;;9.43;3.28;;;;;;;16.34;69.68;99528.66;4996417;28;20449;-67
2021/07/07 02:50:04;;;;;;;8.80;2.83;;;;;;;16.33;69.65;99534.78;4979212;28;20046;-66
2021/07/07 02:52:32;;;;;;;6.15;2.50;;;;;;;16.33;69.81;99532.16;4996538;28;20073;-67
2021/07/07 02:55:03;;;;;;;5.97;2.60;;;;;;;16.32;69.68;99536.53;4995783;28;20043;-67
2021/07/07 02:57:55;;;;;;;8.23;2.75;;;;;;;16.32;69.73;99526.06;4979355;28;20038;-67
2021/07/07 03:00:21;;;;;;;8.13;3.47;;;;;;;16.32;69.69;99536.53;4995986;28;20142;-66
2021/07/07 03:02:47;;;;;;;5.35;2.95;;;;;;;16.32;69.67;99535.66;4995150;28;20112;-67
2021/07/07 03:05:15;;;;;;;9.55;3.10;;;;;;;16.32;69.70;99536.53;4996072;28;20490;-67
2021/07/07 03:07:41;;;;;;;7.07;3.05;;;;;;;16.32;69.62;99536.53;4996607;28;20041;-67
2021/07/07 03:10:12;;;;;;;9.25;2.60;;;;;;;16.32;69.69;99530.44;4995192;28;20039;-67
2021/07/07 03:12:43;;;;;;;8.57;3.30;;;;;;;16.31;69.77;99531.31;4996180;28;20073;-68
2021/07/07 03:15:12;;;;;;;14.52;3.30;;;;;;;16.29;69.80;99532.22;4994591;28;20050;-66
2021/07/07 03:17:37;;;;;;;8.90;3.20;;;;;;;16.28;69.86;99546.16;4978715;28;20042;-67
2021/07/07 03:20:09;;;;;;;9.95;3.28;;;;;;;16.28;69.71;99545.28;4995088;28;20034;-68
2021/07/07 03:22:35;;;;;;;6.13;2.97;;;;;;;16.28;69.81;99543.56;4995035;28;20045;-67
2021/07/07 03:25:03;;;;;;;13.77;3.30;;;;;;;16.27;69.60;99551.44;4995884;28;20117;-67
2021/07/07 03:27:37;;;;;;;9.45;2.63;;;;;;;16.26;69.68;99558.41;4996127;28;20042;-66
2021/07/07 03:30:12;;;;;;;9.82;2.78;;;;;;;16.25;69.56;99558.44;4996036;28;20034;-67
2021/07/07 03:32:37;;;;;;;11.45;3.17;;;;;;;16.24;69.79;99564.53;4995962;28;20038;-67
2021/07/07 03:35:03;;;;;;;9.43;3.15;;;;;;;16.24;69.79;99569.78;4996172;28;20386;-66
2021/07/07 03:37:35;;;;;;;9.52;3.30;;;;;;;16.23;69.82;99575.88;4995528;28;20031;-66
2021/07/07 03:40:01;;;;;;;14.80;3.55;;;;;;;16.23;69.73;99578.50;4995874;28;20117;-66
2021/07/07 03:42:32;;;;;;;11.98;2.83;;;;;;;16.21;69.71;99581.13;4994489;28;20057;-66
2021/07/07 03:44:58;;;;;;;9.20;3.33;;;;;;;16.21;69.79;99588.13;4994762;28;20034;-66
2021/07/07 03:47:25;;;;;;;5.95;2.53;;;;;;;16.21;69.69;99588.13;4994336;28;20493;-67
2021/07/07 03:49:53;;;;;;;11.82;3.22;;;;;;;16.20;69.84;99581.16;4995528;28;20034;-67
2021/07/07 03:52:24;;;;;;;5.55;2.90;;;;;;;16.20;69.81;99578.53;4995624;28;20046;-68
2021/07/07 03:54:52;;;;;;;5.88;2.80;;;;;;;16.21;69.80;99588.13;4993871;28;20521;-67
2021/07/07 03:57:20;;;;;;;7.03;3.55;;;;;;;16.21;69.82;99582.88;4994114;28;20045;-67
2021/07/07 03:59:49;;;;;;;12.85;3.03;;;;;;;16.19;69.83;99582.91;4995307;28;20050;-67
2021/07/07 04:02:22;;;;;;;11.88;3.42;;;;;;;16.17;69.61;99587.31;4993698;28;20055;-67
2021/07/07 04:04:48;;;;;;;11.98;3.22;;;;;;;16.17;69.74;99591.66;4994114;28;20095;-67
2021/07/07 04:07:13;;;;;;;8.65;3.35;;;;;;;16.17;69.79;99587.31;4995250;28;20042;-66
2021/07/07 04:09:48;;;;;;;15.32;3.35;;;;;;;16.16;69.85;99588.19;4994023;28;20026;-67
2021/07/07 04:12:19;;;;;;;7.25;2.75;;;;;;;16.17;69.66;99594.25;4993940;28;20137;-67
2021/07/07 04:14:44;;;;;;;6.57;2.88;;;;;;;16.16;69.90;99592.53;4995290;28;20042;-68
2021/07/07 04:17:12;;;;;;;4.53;2.50;;;;;;;16.16;69.87;99605.59;4994944;28;20125;-67
2021/07/07 04:19:43;;;;;;;8.88;2.70;;;;;;;16.15;69.73;99612.59;4993675;28;20196;-68
2021/07/07 04:22:11;;;;;;;8.48;2.90;;;;;;;16.16;69.69;99608.22;4995065;28;20042;-67
2021/07/07 04:24:42;;;;;;;9.95;3.50;;;;;;;16.14;69.84;99614.34;4994971;28;20041;-67
2021/07/07 04:27:11;;;;;;;9.18;2.85;;;;;;;16.15;69.77;99612.59;4994160;28;20045;-67
2021/07/07 04:29:42;;;;;;;6.45;2.72;;;;;;;16.15;69.85;99612.59;4995213;28;20042;-67
2021/07/07 04:32:09;;;;;;;9.05;3.30;;;;;;;16.16;69.84;99616.06;4994887;28;20073;-67
2021/07/07 04:34:37;;;;;;;7.13;3.05;;;;;;;16.13;69.64;99615.22;4994445;28;20042;-67
2021/07/07 04:37:05;;;;;;;6.45;2.53;;;;;;;16.14;69.51;99619.56;4993860;28;20038;-67
2021/07/07 04:39:37;;;;;;;8.10;2.60;;;;;;;16.13;69.91;99619.59;4993651;28;20411;-66
2021/07/07 04:42:05;;;;;;;6.82;3.15;;;;;;;16.14;69.80;99618.72;4977319;28;20112;-67
2021/07/07 04:44:30;;;;;;;7.88;2.88;;;;;;;16.14;69.96;99626.56;4994669;28;20030;-67
2021/07/07 04:47:01;;;;;;;14.93;3.47;;;;;;;16.14;69.84;99640.47;4994527;28;20073;-66
2021/07/07 04:49:30;;;;;;;11.55;3.30;;;;;;;16.15;69.91;99636.13;4994606;28;20046;-68
2021/07/07 04:52:01;;;;;;;8.60;3.25;;;;;;;16.13;70.03;99638.75;4977532;28;20078;-67
2021/07/07 04:54:28;;;;;;;10.57;3.33;;;;;;;16.14;70.01;99639.63;4994135;28;20092;-67
2021/07/07 04:56:57;;;;;;;7.20;2.83;;;;;;;16.13;70.02;99635.28;4993989;28;20533;-67
2021/07/07 04:59:25;;;;;;;9.95;3.42;;;;;;;16.13;69.83;99643.13;4993579;28;20038;-67
2021/07/07 05:01:53;;;;;;;11.13;3.65;;;;;;;16.13;70.08;99636.13;4992561;28;20568;-66
2021/07/07 05:04:24;;;;;;;9.40;2.97;;;;;;;16.14;70.00;99644.84;4994216;28;20038;-67
2021/07/07 05:06:53;;;;;;;6.78;3.05;;;;;;;16.13;69.93;99648.34;4992838;28;20475;-67
2021/07/07 05:09:28;;;;;;;6.93;3.50;;;;;;;16.13;69.94;99641.34;4994026;28;20038;-67
2021/07/07 05:11:57;;;;;;;13.45;2.88;;;;;;;16.12;69.96;99644.84;4993217;28;20042;-66
2021/07/07 05:14:25;;;;;;;8.35;3.33;;;;;;;16.12;69.97;99647.47;4993075;28;20042;-67
2021/07/07 05:16:59;;;;;;;7.65;3.55;;;;;;;16.14;69.97;99657.91;4994502;28;20034;-68
2021/07/07 05:19:32;;;;;;;6.90;3.00;;;;;;;16.14;70.07;99655.31;4993242;28;20128;-67
2021/07/07 05:22:03;;;;;;;7.30;2.50;;;;;;;16.16;70.04;99665.72;4994172;28;20096;-67
2021/07/07 05:24:34;;;;;;;11.02;3.05;;;;;;;16.14;70.05;99658.78;4994086;28;20495;-67
2021/07/07 05:27:04;;;;;;;10.07;3.78;;;;;;;16.15;69.98;99662.28;4993005;28;20129;-67
2021/07/07 05:29:29;;;;;;;8.55;2.78;;;;;;;16.17;70.24;99664.84;4994001;28;20405;-67
2021/07/07 05:32:00;;;;;;;5.88;2.78;;;;;;;16.17;70.10;99665.72;4992754;28;20046;-67
2021/07/07 05:34:31;;;;;;;8.00;3.00;;;;;;;16.18;69.95;99677.91;4993552;28;20034;-67
2021/07/07 05:37:02;;;;;;;5.75;2.83;;;;;;;16.18;70.19;99677.91;4992959;28;20047;-67
2021/07/07 05:39:28;;;;;;;9.13;3.33;;;;;;;16.19;70.10;99673.53;4993950;28;20034;-67
2021/07/07 05:42:00;;;;;;;9.18;3.17;;;;;;;16.20;70.10;99677.88;4993640;28;20045;-66
2021/07/07 05:44:25;;;;;;;7.22;2.92;;;;;;;16.21;70.24;99682.22;4994238;28;20038;-68
2021/07/07 05:46:56;;;;;;;7.78;3.10;;;;;;;16.22;70.16;99682.19;4992775;28;20117;-68
2021/07/07 05:49:27;;;;;;;8.05;3.38;;;;;;;16.21;70.13;99685.69;4976423;28;20035;-67
2021/07/07 05:51:55;;;;;;;7.15;3.38;;;;;;;16.22;70.20;99686.56;4993869;28;20054;-67
2021/07/07 05:54:26;;;;;;;10.95;3.78;;;;;;;16.23;70.28;99688.31;4992871;28;20077;-67
2021/07/07 05:56:55;;;;;;;12.73;3.85;;;;;;;16.22;70.14;99684.81;4992814;28;20043;-67
2021/07/07 05:59:23;;;;;;;8.25;3.05;;;;;;;16.24;70.18;99684.81;4993707;28;20514;-67
2021/07/07 06:01:50;;;;;;;15.60;3.28;;;;;;;16.24;70.13;99693.50;4993529;28;20129;-67
2021/07/07 06:04:22;;;;;;;9.70;3.47;;;;;;;16.24;70.22;99687.44;4992465;28;20386;-66
2021/07/07 06:06:50;;;;;;;12.90;3.30;;;;;;;16.24;70.27;99692.66;4994349;28;20044;-67
2021/07/07 06:09:18;;;;;;;12.90;4.00;;;;;;;16.23;70.26;99683.94;4993548;28;20042;-67
2021/07/07 06:11:47;;;;;;;9.40;3.25;;;;;;;16.26;70.21;99690.88;4976374;28;20121;-67
2021/07/07 06:14:16;;;;;;;9.05;3.10;;;;;;;16.26;70.23;99694.34;4992676;28;20042;-68
2021/07/07 06:16:44;;;;;;;8.70;3.45;;;;;;;16.26;70.18;99693.50;4993512;28;20050;-68
2021/07/07 06:19:15;;;;;;;9.50;3.40;;;;;;;16.26;70.33;99696.13;4992323;28;20069;-67
2021/07/07 06:21:46;;;;;;;12.15;3.10;;;;;;;16.27;70.25;99706.53;4992928;28;20130;-70
2021/07/07 06:24:13;;;;;;;13.18;3.35;;;;;;;16.27;70.39;99701.31;4993441;28;20031;-67
2021/07/07 06:26:45;;;;;;;7.13;2.58;;;;;;;16.29;70.28;99711.75;4978567;28;20038;-67
2021/07/07 06:29:15;;;;;;;7.85;2.70;;;;;;;16.31;70.48;99722.19;4995893;28;20038;-67
2021/07/07 06:31:46;;;;;;;11.60;3.58;;;;;;;16.30;70.41;99721.31;4997100;28;20038;-67
2021/07/07 06:34:18;;;;;;;7.03;3.20;;;;;;;16.32;70.18;99713.47;4995563;28;20130;-67
2021/07/07 06:36:49;;;;;;;11.52;3.35;;;;;;;16.31;70.26;99723.06;4997251;28;20084;-68
2021/07/07 06:39:20;;;;;;;8.48;3.70;;;;;;;16.33;70.23;99715.22;4995911;28;20026;-68
2021/07/07 06:41:48;;;;;;;7.70;2.92;;;;;;;16.33;70.23;99718.66;4995277;28;20043;-68
2021/07/07 06:44:16;;;;;;;8.15;3.60;;;;;;;16.32;70.42;99718.72;4996533;28;20034;-68
2021/07/07 06:46:46;;;;;;;9.50;3.17;;;;;;;16.34;70.33;99720.41;4996815;28;20066;-66
2021/07/07 06:49:15;;;;;;;5.97;3.03;;;;;;;16.34;70.41;99728.25;4995779;28;20092;-66
2021/07/07 06:51:49;;;;;;;11.43;3.53;;;;;;;16.35;70.21;99724.75;4995602;28;20038;-66
2021/07/07 06:54:16;;;;;;;12.52;4.47;;;;;;;16.37;70.40;99723.00;4995624;28;20174;-67
2021/07/07 06:56:44;;;;;;;7.43;3.33;;;;;;;16.37;70.58;99727.34;4996635;28;20035;-67
2021/07/07 06:59:15;;;;;;;6.40;2.92;;;;;;;16.38;70.35;99729.06;4995358;28;20505;-67
2021/07/07 07:01:43;;;;;;;9.63;3.38;;;;;;;16.39;70.33;99726.44;4979377;28;20054;-67
2021/07/07 07:04:12;;;;;;;8.13;3.08;;;;;;;16.39;70.36;99739.53;4995473;28;20118;-67
2021/07/07 07:06:43;;;;;;;11.38;3.33;;;;;;;16.40;70.38;99729.91;4996477;28;20038;-68
2021/07/07 07:09:12;;;;;;;10.00;3.40;;;;;;;16.42;70.54;99736.00;4995078;28;20034;-67
2021/07/07 07:11:43;;;;;;;10.35;3.70;;;;;;;16.40;70.67;99743.88;4996497;28;20049;-67
2021/07/07 07:14:14;;;;;;;11.45;3.92;;;;;;;16.41;70.47;99743.00;4995030;28;20040;-67
2021/07/07 07:16:45;;;;;;;8.57;3.08;;;;;;;16.41;70.50;99745.59;4995571;28;20047;-67
2021/07/07 07:19:15;;;;;;;12.05;4.00;;;;;;;16.43;70.45;99745.56;4996516;28;20030;-67
2021/07/07 07:21:41;;;;;;;8.88;2.92;;;;;;;16.44;70.37;99744.69;4994756;28;20125;-66
2021/07/07 07:24:10;;;;;;;8.85;3.58;;;;;;;16.44;70.44;99750.78;4994650;28;20081;-67
2021/07/07 07:26:41;;;;;;;7.25;3.55;;;;;;;16.46;70.54;99753.38;4995327;28;20042;-67
2021/07/07 07:29:11;;;;;;;11.30;3.72;;;;;;;16.46;70.40;99747.28;4995191;28;20050;-68
2021/07/07 07:31:37;;;;;;;7.63;3.40;;;;;;;16.46;70.56;99750.78;4995960;28;20069;-68
2021/07/07 07:34:09;;;;;;;8.45;3.60;;;;;;;16.49;70.54;99752.47;4994016;28;20078;-67
2021/07/07 07:36:42;;;;;;;7.30;3.60;;;;;;;16.48;70.62;99754.25;4996765;28;20057;-67
2021/07/07 07:39:20;;;;;;;9.13;3.15;;;;;;;16.48;70.46;99755.97;4995359;28;20034;-67
2021/07/07 07:41:48;;;;;;;7.10;3.65;;;;;;;16.49;70.37;99758.59;4978822;28;20409;-68
2021/07/07 07:44:14;;;;;;;12.45;3.85;;;;;;;16.51;70.53;99762.03;4994480;28;20034;-68
2021/07/07 07:46:43;;;;;;;9.95;3.50;;;;;;;16.52;70.59;99765.53;4994269;28;20038;-65
2021/07/07 07:49:20;;;;;;;7.45;3.50;;;;;;;16.51;70.50;99758.56;4994537;28;20555;-65
2021/07/07 07:51:50;;;;;;;8.05;3.47;;;;;;;16.51;70.68;99761.16;4994724;28;20042;-67
2021/07/07 07:54:20;;;;;;;9.95;3.92;;;;;;;16.51;70.48;99762.03;4978150;28;20045;-65
2021/07/07 07:56:50;;;;;;;7.30;3.28;;;;;;;16.52;70.58;99760.28;4995507;28;20068;-68
2021/07/07 07:59:18;;;;;;;6.97;3.33;;;;;;;16.51;70.32;99761.16;4994239;28;20038;-66
2021/07/07 08:01:49;;;;;;;8.13;3.22;;;;;;;16.53;70.34;99764.63;4995193;28;20514;-65
2021/07/07 08:04:17;;;;;;;9.80;3.22;;;;;;;16.53;70.49;99762.88;4994265;28;20122;-67
2021/07/07 08:06:48;;;;;;;8.40;2.78;;;;;;;16.53;70.57;99767.25;4978214;28;20110;-68
2021/07/07 08:09:16;;;;;;;7.03;2.80;;;;;;;16.53;70.35;99759.41;4995430;28;20042;-67
2021/07/07 08:11:43;;;;;;;9.20;3.28;;;;;;;16.55;70.68;99773.34;4994172;28;20509;-68
2021/07/07 08:14:11;;;;;;;8.63;3.00;;;;;;;16.56;70.51;99765.44;4994180;28;20113;-67
2021/07/07 08:16:43;;;;;;;10.10;3.80;;;;;;;16.56;70.33;99764.59;4977634;28;20042;-67
2021/07/07 08:19:14;;;;;;;7.97;3.05;;;;;;;16.57;70.13;99777.66;4993789;28;20039;-67
2021/07/07 08:21:42;;;;;;;9.50;4.05;;;;;;;16.57;70.25;99774.19;4995073;28;20046;-67
2021/07/07 08:24:13;;;;;;;8.98;3.80;;;;;;;16.59;70.28;99780.22;4993577;28;20118;-67
2021/07/07 08:26:42;;;;;;;8.25;3.30;;;;;;;16.60;70.13;99795.03;4994931;28;20042;-67
2021/07/07 08:29:09;;;;;;;8.63;3.33;;;;;;;16.61;70.35;99788.09;4995180;28;20037;-67
2021/07/07 08:31:41;;;;;;;13.35;3.50;;;;;;;16.62;70.24;99793.28;4993660;28;20038;-67
2021/07/07 08:34:15;;;;;;;8.45;3.10;;;;;;;16.62;70.46;99790.66;4993533;28;20048;-67
2021/07/07 08:36:44;;;;;;;;;;;;;;;16.60;70.26;99784.59;4995222;28;20069;-68
2021/07/07 08:39:17;;;;;;;6.32;3.42;;;;;;;16.62;70.32;99779.34;4993566;28;20415;-68
2021/07/07 08:41:48;;;;;;;10.55;3.60;;;;;;;16.63;70.24;99787.16;4993856;28;20034;-67
2021/07/07 08:44:25;;;;;;;10.63;3.95;;;;;;;16.66;70.51;99788.91;4994907;28;20038;-68
2021/07/07 08:46:53;;;;;;;;;;;;;;;16.65;70.32;99789.78;4994209;28;20129;-67
2021/07/07 08:49:22;;;;;;;12.68;4.10;;;;;;;16.67;70.44;99794.09;4977111;28;19913;-67
2021/07/07 08:51:53;;;;;;;9.05;3.42;;;;;;;16.69;70.27;99809.75;4993278;28;20497;-67
2021/07/07 08:54:25;;;;;;;8.48;3.20;;;;;;;16.70;70.13;99801.91;4994734;28;20394;-68
2021/07/07 08:56:53;;;;;;;7.50;3.38;;;;;;;16.71;70.24;99816.72;4994623;28;20136;-67
2021/07/07 08:59:21;;;;;;;6.95;3.17;;;;;;;16.72;69.88;99808.00;4994282;28;20093;-67
2021/07/07 09:02:08;;;;;;;8.73;3.38;;;;;;;16.73;70.12;99809.72;4993060;28;20046;-67
2021/07/07 09:04:36;;;;;;;11.75;3.53;;;;;;;16.74;70.05;99811.44;4993551;28;20038;-68
2021/07/07 09:07:15;;;;;;;9.00;3.00;;;;;;;16.74;70.27;99805.34;4994158;28;20034;-68
2021/07/07 09:09:47;;;;;;;8.35;3.15;;;;;;;16.75;70.00;99813.16;4976845;28;20038;-66
2021/07/07 09:12:29;;;;;;;6.53;2.80;;;;;;;16.77;70.20;99809.66;4994115;28;20387;-67
2021/07/07 09:15:13;;;;;;;5.00;2.70;;;;;;;16.76;70.20;99811.44;4992785;28;20061;-67
2021/07/07 09:17:39;;;;;;;;;;;;;;;16.74;70.04;99811.44;4993781;28;20462;-67
2021/07/07 09:20:23;;;;;;;7.18;3.15;;;;;;;16.73;70.09;99816.69;4994179;28;20389;-66
2021/07/07 09:23:25;;;;;;;7.70;2.65;;;;;;;16.74;70.17;99823.66;4994292;28;20037;-67
2021/07/07 09:26:03;;;;;;;11.05;3.13;;;;;;;16.74;70.21;99832.38;4992873;28;20038;-66
2021/07/07 09:28:36;;;;;;;8.85;2.75;;;;;;;16.75;69.90;99830.63;4994110;28;20049;-68
2021/07/07 09:31:28;;;;;;;5.97;2.67;;;;;;;16.76;70.18;99837.59;4993241;28;20042;-67
2021/07/07 09:34:19;;;;;;;4.03;2.38;;;;;;;16.77;69.94;99835.84;4993223;28;20038;-67
2021/07/07 09:36:50;;;;;;;6.45;2.45;;;;;;;16.78;69.93;99833.22;4977140;28;20493;-67
2021/07/07 09:39:20;;;;;;;5.90;2.85;;;;;;;16.79;70.04;99834.06;4992818;28;20058;-68
2021/07/07 09:41:52;;;;;;;9.23;3.15;;;;;;;16.81;69.91;99827.94;4993654;28;20105;-67
2021/07/07 09:44:21;;;;;;;5.50;2.83;;;;;;;16.83;70.04;99835.75;4993337;28;20035;-68
2021/07/07 09:46:52;;;;;;;6.78;2.72;;;;;;;16.85;69.96;99834.84;4992586;28;20133;-67
2021/07/07 09:49:22;;;;;;;6.78;3.00;;;;;;;16.86;69.84;99838.34;4992730;28;20097;-67
2021/07/07 09:52:00;;;;;;;7.15;2.72;;;;;;;16.87;69.86;99843.53;4976452;28;20125;-68
2021/07/07 09:54:31;;;;;;;6.10;2.65;;;;;;;16.88;69.91;99845.28;4993619;28;20482;-67
2021/07/07 09:57:05;;;;;;;5.00;2.80;;;;;;;16.89;69.77;99841.78;4994075;28;20039;-68
2021/07/07 09:59:36;;;;;;;4.45;2.55;;;;;;;16.88;69.67;99847.91;4994163;28;20038;-69
2021/07/07 10:02:09;;;;;;;5.20;2.47;;;;;;;16.88;69.42;99855.75;4996173;28;20081;-67
2021/07/07 10:04:40;;;;;;;4.90;2.50;;;;;;;16.88;69.70;99847.03;4997777;28;20042;-66
2021/07/07 10:07:12;;;;;;;7.63;2.80;;;;;;;16.88;69.71;99853.13;4980188;28;20108;-69
2021/07/07 10:09:45;;;;;;;5.60;2.47;;;;;;;16.88;69.69;99853.13;4996874;28;20129;-69
2021/07/07 10:12:17;;;;;;;5.78;2.42;;;;;;;16.88;69.62;99853.13;4997207;28;20121;-68
2021/07/07 10:14:43;;;;;;;9.27;2.88;;;;;;;16.90;69.75;99853.09;4997444;28;20042;-67
2021/07/07 10:17:19;;;;;;;10.35;3.85;;;;;;;16.90;69.82;99848.75;4997388;28;20126;-69
2021/07/07 10:19:48;;;;;;;6.57;2.78;;;;;;;16.93;69.76;99857.44;4997863;28;20046;-69
2021/07/07 10:22:19;;;;;;;8.48;3.47;;;;;;;16.94;69.78;99865.28;4997316;28;20046;-68
2021/07/07 10:24:50;;;;;;;6.15;2.90;;;;;;;16.95;69.73;99867.03;4997089;28;20034;-68
2021/07/07 10:27:19;;;;;;;5.35;2.55;;;;;;;16.97;69.64;99859.19;4996134;28;20052;-68
2021/07/07 10:29:48;;;;;;;9.18;3.03;;;;;;;16.96;69.74;99862.69;4996317;28;20039;-66
2021/07/07 10:32:18;;;;;;;7.85;3.15;;;;;;;16.96;69.72;99863.53;4997121;28;20121;-67
2021/07/07 10:34:46;;;;;;;5.93;3.10;;;;;;;16.96;69.57;99860.91;4996061;28;20096;-66
2021/07/07 10:37:24;;;;;;;5.70;2.78;;;;;;;16.97;69.54;99869.66;4996121;28;20042;-67
2021/07/07 10:40:48;;;;;;;8.73;2.70;;;;;;;16.95;69.69;99872.28;4995956;28;20137;-68
2021/07/07 10:43:45;;;;;;;7.70;3.53;;;;;;;16.95;69.64;99869.66;4984018;28;20061;-67
2021/07/07 10:46:54;;;;;;;7.82;2.90;;;;;;;16.95;69.70;99874.88;4995753;28;20038;-66
2021/07/07 10:49:28;;;;;;;7.25;3.30;;;;;;;16.96;69.84;99878.38;4983231;28;20141;-67
2021/07/07 10:51:56;;;;;;;7.22;3.15;;;;;;;16.97;69.72;99880.13;4997043;28;20510;-68
2021/07/07 10:54:28;;;;;;;6.25;3.05;;;;;;;16.98;69.60;99876.59;4995420;28;20446;-68
2021/07/07 10:56:58;;;;;;;5.63;2.90;;;;;;;16.98;69.83;99871.34;4996791;28;20125;-69
2021/07/07 10:59:34;;;;;;;6.88;2.78;;;;;;;16.99;69.78;99878.31;4996638;28;20038;-66
2021/07/07 11:02:08;;;;;;;6.32;2.60;;;;;;;16.99;69.59;99871.34;4996149;28;20050;-67
2021/07/07 11:04:43;;;;;;;7.45;3.08;;;;;;;17.01;69.66;99879.16;4996408;28;20031;-68
2021/07/07 11:07:21;;;;;;;8.63;3.15;;;;;;;17.01;69.66;99876.56;4996970;28;20054;-67
2021/07/07 11:09:55;;;;;;;5.70;2.88;;;;;;;17.02;69.71;99879.16;4996322;28;20057;-66
2021/07/07 11:12:43;;;;;;;5.22;2.70;;;;;;;17.02;69.61;99886.16;4996418;28;20050;-68
2021/07/07 11:15:27;;;;;;;4.50;2.42;;;;;;;17.03;69.89;99883.53;4947931;28;20050;-68
2021/07/07 11:17:55;;;;;;;6.32;2.65;;;;;;;17.04;69.55;99873.91;4995081;28;20549;-68
2021/07/07 11:20:28;;;;;;;4.95;2.85;;;;;;;17.05;69.52;99892.19;4996493;28;20084;-67
2021/07/07 11:23:11;;;;;;;5.45;2.88;;;;;;;17.07;69.53;99884.34;4996689;28;20045;-67
2021/07/07 11:25:42;;;;;;;5.93;2.40;;;;;;;17.07;69.55;99889.56;4995660;28;20112;-69
2021/07/07 11:28:16;;;;;;;8.55;3.30;;;;;;;17.08;69.43;99891.31;4996253;28;20034;-68
2021/07/07 11:30:46;;;;;;;12.35;3.55;;;;;;;17.10;69.53;99886.03;4994837;28;20038;-69
2021/07/07 11:33:18;;;;;;;9.63;3.30;;;;;;;17.11;69.29;99882.53;4995201;28;20393;-68
2021/07/07 11:35:47;;;;;;;9.60;3.17;;;;;;;17.11;69.28;99886.03;4995801;28;20031;-67
2021/07/07 11:38:22;;;;;;;4.50;3.20;;;;;;;17.11;69.34;99899.13;4994878;28;20042;-69
2021/07/07 11:40:55;;;;;;;7.72;3.00;;;;;;;17.12;69.28;99885.16;4995944;28;20057;-69
2021/07/07 11:43:32;;;;;;;4.90;2.80;;;;;;;17.14;69.36;99896.44;4995623;28;20048;-69
2021/07/07 11:46:10;;;;;;;5.93;3.15;;;;;;;17.13;69.24;99889.47;4994851;28;20449;-67
2021/07/07 11:48:41;;;;;;;6.10;2.85;;;;;;;17.15;69.45;99892.09;4995895;28;20042;-68